This is the latest recevied weather packets stored in our database for station/object DL2AKT-20. If no packets are shown the sender has not sent any weather packets the latest 10 day(s).
| Time | Temp. | Humidity | Pressure | Rain* | Wind** | Luminosity | Snow |
|---|---|---|---|---|---|---|---|
| 1777147197 | 13.89° C | 30% | 1020.3 hPa | - | - | - | - |
| 1777146297 | 14.44° C | 28% | 1020.3 hPa | - | - | - | - |
| 1777145397 | 14.44° C | 27% | 1020.2 hPa | - | - | - | - |
| 1777144497 | 15° C | 25% | 1020 hPa | - | - | - | - |
| 1777143597 | 15.56° C | 24% | 1019.8 hPa | - | - | - | - |
| 1777142697 | 16.11° C | 23% | 1019.6 hPa | - | - | - | - |
| 1777141797 | 16.67° C | 23% | 1019.5 hPa | - | - | - | - |
| 1777140896 | 17.22° C | 22% | 1019.3 hPa | - | - | - | - |
| 1777139999 | 17.78° C | 22% | 1019.2 hPa | - | - | - | - |
| 1777139099 | 18.89° C | 20% | 1019 hPa | - | - | - | - |
| 1777138198 | 20° C | 18% | 1018.9 hPa | - | - | - | - |
| 1777137298 | 21.67° C | 18% | 1019 hPa | - | - | - | - |
| 1777136398 | 22.22° C | 19% | 1018.9 hPa | - | - | - | - |
| 1777135498 | 22.22° C | 18% | 1018.9 hPa | - | - | - | - |
| 1777134598 | 22.22° C | 17% | 1018.9 hPa | - | - | - | - |
| 1777133698 | 22.78° C | 17% | 1019 hPa | - | - | - | - |
| 1777132798 | 22.78° C | 16% | 1018.9 hPa | - | - | - | - |
| 1777131898 | 22.22° C | 19% | 1018.9 hPa | - | - | - | - |
| 1777130998 | 22.78° C | 17% | 1019.1 hPa | - | - | - | - |
| 1777130098 | 22.78° C | 17% | 1019 hPa | - | - | - | - |
| 1777129198 | 22.22° C | 21% | 1018.9 hPa | - | - | - | - |
| 1777128298 | 22.22° C | 20% | 1018.9 hPa | - | - | - | - |
| 1777127398 | 21.67° C | 19% | 1018.9 hPa | - | - | - | - |
| 1777126498 | 21.67° C | 20% | 1019 hPa | - | - | - | - |
| 1777125597 | 21.11° C | 21% | 1019.1 hPa | - | - | - | - |
* Rain since midnight (hover to see other rain measurements)
** Current wind speed in m/s (hover to see current wind gust speed)